首页
METAR-TAF:

METAR-TAF

机场 :

Malcolm McKinnon Airport

布朗斯维克, 喬治亞, 美国

纬度: 31-09-06N, 经度: 081-23-29W, 海拔: 6米

当前天气观测

该预报发布于1小时和1分钟前的00:53 UTC
静风
温度 18°C
湿度 83%
气压 1019 hPa
能見度: 16.1公里
天空无云

METAR: KSSI 120053Z AUTO 00000KT 10SM CLR 18/15 A3008 RMK AO2 SLP188 T01830150

时间: 20:54 (01:54 UTC)

预报

该预报发布于2小时和15分钟前的23:39 UTC
预报有效从12日的 00点(UTC)到 12日的 24点(UTC)
风速3节,风向
能見度: 10公里
少量云层高于5000英尺
多云层高于25000英尺
从 12日的 0600点(UTC)
风速3节,风向多变
能見度: 10公里
少量云层高于2000英尺
多云层高于25000英尺
从 12日的 1400点(UTC)
风速6节,风向西南
能見度: 10公里
散云层高于3000英尺
多云层高于20000英尺
从 12日的 1700点(UTC)
风速7节,风向西转西南
能見度: 10公里
多云层高于4000英尺
附近有阵雨
从 12日的 2000点(UTC)
风速12节,风向西北,有时为22节阵风
能見度: 8.0公里
散云层高于800英尺
阴天层高于1200英尺
小雨

TAF: KSSI 112339Z 1200/1224 09003KT P6SM FEW050 BKN250 FM120600 VRB03KT P6SM FEW020 BKN250 FM121400 23006KT P6SM SCT030 BKN200 FM121700 24007KT P6SM VCSH BKN040 FM122000 32012G22KT 5SM -RA SCT008 OVC012

超过4000个机场的气象观测和天气预报(METAR&TAF报告)。

可查询的气象台以黄色和红色小点在地图上表示。

将鼠标移到小点上方,可查看气象台名称。

然后点击查看天气观测和预报。

如需切换地图:点击带黑十字的绿色按钮放大地图;点击带横线的绿色按钮缩小地图;或者点击绿色箭头查看邻近地区的地图。


METAR-TAF: